Time;durP1;ratioP1;P1;durP2;ratioP2;P2;SDS_P1;SDS_P2;PMS_P1;PMS_P2;Temp;Humidity;BMP_temperature;BMP_pressure;BME280_temperature;BME280_humidity;BME280_pressure;Samples;Min_cycle;Max_cycle;Signal;HPM_P1;HPM_P2
2022/11/04 00:13:58;;;;;;;;;;;15.70;95.10;;;;;;5054913;28;19955;-87
2022/11/04 00:19:07;;;;;;;;;;;15.60;95.20;;;;;;5054810;28;20463;-87
2022/11/04 00:29:45;;;;;;;;;;;15.60;95.20;;;;;;5054476;28;20023;-87
2022/11/04 00:34:55;;;;;;;;;;;15.60;95.20;;;;;;5054566;28;19948;-87
2022/11/04 00:37:20;;;;;;;;;;;15.60;95.30;;;;;;5054454;28;19958;-87
2022/11/04 00:39:46;;;;;;;;;;;15.60;95.30;;;;;;5054665;28;19970;-87
2022/11/04 00:42:11;;;;;;;;;;;15.50;95.40;;;;;;5054351;28;19981;-87
2022/11/04 00:44:37;;;;;;;;;;;15.50;95.50;;;;;;5054309;28;20380;-87
2022/11/04 00:47:02;;;;;;;;;;;15.50;95.50;;;;;;5054359;28;20393;-87
2022/11/04 00:49:28;;;;;;;;;;;15.50;95.50;;;;;;5054560;28;20460;-87
2022/11/04 00:51:54;;;;;;;;;;;15.50;95.50;;;;;;5052755;28;20431;-87
2022/11/04 00:54:19;;;;;;;;;;;15.50;95.50;;;;;;5054107;28;20389;-87
2022/11/04 00:56:47;;;;;;;;;;;15.40;95.70;;;;;;5054135;28;20008;-87
2022/11/04 00:59:13;;;;;;;;;;;15.40;95.80;;;;;;5052851;28;19948;-87
2022/11/04 01:01:38;;;;;;;;;;;15.50;95.80;;;;;;5054027;28;19941;-87
2022/11/04 01:04:04;;;;;;;;;;;15.40;95.80;;;;;;5054033;28;19942;-87
2022/11/04 01:06:29;;;;;;;;;;;15.40;95.80;;;;;;5053985;28;19974;-87
2022/11/04 01:08:56;;;;;;;;;;;15.40;95.80;;;;;;5053873;28;20355;-87
2022/11/04 01:11:21;;;;;;;;;;;15.40;95.90;;;;;;5053886;28;20448;-87
2022/11/04 01:13:50;;;;;;;;;;;15.40;95.90;;;;;;5053789;28;20031;-87
2022/11/04 01:16:16;;;;;;;;;;;15.30;96.00;;;;;;5053731;28;20110;-87
2022/11/04 01:18:41;;;;;;;;;;;15.30;96.20;;;;;;5053679;28;20052;-87
2022/11/04 01:21:08;;;;;;;;;;;15.30;96.30;;;;;;5053618;28;20331;-87
2022/11/04 01:23:34;;;;;;;;;;;15.30;96.40;;;;;;5053683;28;19998;-87
2022/11/04 01:25:59;;;;;;;;;;;15.30;96.30;;;;;;5053647;28;19945;-87
2022/11/04 01:34:58;;;;;;;;;;;15.40;96.10;;;;;;5032274;28;19963;-87
2022/11/04 01:37:24;;;;;;;;;;;15.40;96.00;;;;;;5053604;28;19963;-88
2022/11/04 01:39:49;;;;;;;;;;;15.40;96.00;;;;;;5053444;28;20355;-87
2022/11/04 01:42:15;;;;;;;;;;;15.50;96.10;;;;;;5053412;28;19985;-88
2022/11/04 01:44:40;;;;;;;;;;;15.50;95.90;;;;;;5053331;28;19940;-87
2022/11/04 01:47:17;;;;;;;;;;;15.40;95.80;;;;;;5053234;28;19943;-88
2022/11/04 01:49:45;;;;;;;;;;;15.50;95.90;;;;;;5053195;28;19937;-87
2022/11/04 01:52:13;;;;;;;;;;;15.40;95.80;;;;;;5052944;28;20303;-87
2022/11/04 01:54:40;;;;;;;;;;;15.40;95.90;;;;;;5053112;28;19945;-87
2022/11/04 01:57:07;;;;;;;;;;;15.40;96.00;;;;;;5052976;28;19935;-87
2022/11/04 01:59:35;;;;;;;;;;;15.40;96.00;;;;;;5051781;28;19944;-87
2022/11/04 02:02:01;;;;;;;;;;;15.40;96.10;;;;;;5053178;28;20407;-87
2022/11/04 02:04:26;;;;;;;;;;;15.40;96.10;;;;;;5053018;28;19940;-88
2022/11/04 02:07:05;;;;;;;;;;;15.50;96.10;;;;;;5053005;28;19940;-87
2022/11/04 02:09:32;;;;;;;;;;;15.40;96.10;;;;;;5053090;28;19936;-87
2022/11/04 02:14:42;;;;;;;;;;;15.40;96.20;;;;;;5053099;28;20450;-87
2022/11/04 02:17:13;;;;;;;;;;;15.50;96.20;;;;;;5052945;28;19993;-87
2022/11/04 02:19:39;;;;;;;;;;;15.40;96.20;;;;;;5053014;28;19979;-87
2022/11/04 02:22:24;;;;;;;;;;;15.50;96.30;;;;;;5053288;28;19973;-87
2022/11/04 02:25:08;;;;;;;;;;;15.50;96.30;;;;;;5053475;28;19942;-87
2022/11/04 02:27:42;;;;;;;;;;;15.50;96.30;;;;;;5053111;28;19988;-87
2022/11/04 02:30:17;;;;;;;;;;;15.50;96.30;;;;;;5052854;28;19963;-87
2022/11/04 02:33:02;;;;;;;;;;;15.60;96.30;;;;;;5056897;28;19939;-87
2022/11/04 02:35:30;;;;;;;;;;;15.50;96.30;;;;;;5056619;28;20485;-87
2022/11/04 02:37:55;;;;;;;;;;;15.50;96.40;;;;;;5056736;28;19961;-87
2022/11/04 02:40:40;;;;;;;;;;;15.60;96.40;;;;;;5055482;28;19942;-88
2022/11/04 02:43:11;;;;;;;;;;;15.50;96.40;;;;;;5056643;28;19939;-87
2022/11/04 02:45:47;;;;;;;;;;;15.50;96.40;;;;;;5056593;28;20293;-87
2022/11/04 02:48:27;;;;;;;;;;;15.60;96.40;;;;;;5056610;28;19961;-87
2022/11/04 02:50:58;;;;;;;;;;;15.60;96.40;;;;;;5055151;28;19957;-87
2022/11/04 02:53:30;;;;;;;;;;;15.60;96.50;;;;;;5071669;28;20418;-87
2022/11/04 02:55:57;;;;;;;;;;;15.60;96.50;;;;;;5056406;28;19941;-87
2022/11/04 02:58:27;;;;;;;;;;;15.60;96.50;;;;;;5056162;28;20435;-87
2022/11/04 03:00:54;;;;;;;;;;;15.60;96.50;;;;;;5056315;28;20032;-87
2022/11/04 03:03:27;;;;;;;;;;;15.60;96.50;;;;;;5071722;28;19937;-87
2022/11/04 03:05:54;;;;;;;;;;;15.70;96.50;;;;;;5056305;28;19946;-87
2022/11/04 03:08:25;;;;;;;;;;;15.70;96.50;;;;;;5056277;28;19939;-88
2022/11/04 03:10:57;;;;;;;;;;;15.70;96.50;;;;;;5056159;28;20420;-87
2022/11/04 03:13:45;;;;;;;;;;;15.80;96.60;;;;;;5056055;28;19941;-87
2022/11/04 03:16:19;;;;;;;;;;;15.80;96.50;;;;;;5056046;28;20038;-87
2022/11/04 03:18:53;;;;;;;;;;;15.80;96.60;;;;;;5055903;28;19964;-87
2022/11/04 03:21:19;;;;;;;;;;;15.80;96.60;;;;;;5055883;28;20041;-87
2022/11/04 03:23:45;;;;;;;;;;;15.80;96.60;;;;;;5055877;28;19939;-87
2022/11/04 03:26:16;;;;;;;;;;;15.80;96.60;;;;;;5055883;28;20386;-87
2022/11/04 03:28:42;;;;;;;;;;;15.80;96.60;;;;;;5055879;28;19938;-87
2022/11/04 03:31:11;;;;;;;;;;;15.80;96.60;;;;;;5056027;28;19952;-87
2022/11/04 03:33:48;;;;;;;;;;;15.90;96.60;;;;;;5055753;28;20026;-87
2022/11/04 03:36:14;;;;;;;;;;;15.90;96.60;;;;;;5055532;28;19994;-87
2022/11/04 03:38:39;;;;;;;;;;;15.90;96.60;;;;;;5054346;28;19961;-88
2022/11/04 03:41:14;;;;;;;;;;;15.90;96.60;;;;;;5055569;28;19946;-87
2022/11/04 03:43:40;;;;;;;;;;;15.90;96.60;;;;;;5054359;28;19976;-87
2022/11/04 03:46:06;;;;;;;;;;;15.90;96.60;;;;;;5055559;28;19947;-88
2022/11/04 03:48:32;;;;;;;;;;;15.90;96.60;;;;;;5055495;28;19937;-87
2022/11/04 03:50:57;;;;;;;;;;;15.90;96.60;;;;;;5055337;28;19957;-87
2022/11/04 03:53:24;;;;;;;;;;;16.00;96.50;;;;;;5055330;28;20028;-87
2022/11/04 03:56:09;;;;;;;;;;;15.90;96.50;;;;;;5055465;28;19941;-87
2022/11/04 03:58:53;;;;;;;;;;;15.90;96.50;;;;;;5055290;28;20014;-87
2022/11/04 04:01:27;;;;;;;;;;;15.90;96.50;;;;;;5055266;28;19977;-87
2022/11/04 04:04:11;;;;;;;;;;;15.90;96.50;;;;;;5055254;28;20093;-87
2022/11/04 04:06:36;;;;;;;;;;;16.00;96.50;;;;;;5055193;28;19938;-87
2022/11/04 04:09:11;;;;;;;;;;;15.90;96.50;;;;;;5055030;28;19987;-87
2022/11/04 04:11:43;;;;;;;;;;;16.00;96.60;;;;;;5055093;28;19946;-87
2022/11/04 04:17:04;;;;;;;;;;;16.00;96.60;;;;;;5055495;28;20329;-87
2022/11/04 04:19:30;;;;;;;;;;;16.00;96.60;;;;;;5054864;28;19996;-87
2022/11/04 04:21:59;;;;;;;;;;;16.00;96.50;;;;;;5053647;28;19946;-87
2022/11/04 04:27:32;;;;;;;;;;;16.00;96.50;;;;;;5038552;28;20402;-87
2022/11/04 04:30:00;;;;;;;;;;;16.00;96.40;;;;;;5055130;28;20386;-87
2022/11/04 04:32:27;;;;;;;;;;;16.00;96.40;;;;;;5054729;28;20016;-87
2022/11/04 04:35:40;;;;;;;;;;;16.00;96.50;;;;;;5054456;28;19946;-87
2022/11/04 04:37:42;;;;;;;;;;;16.00;96.50;;;;;;5054381;28;19971;-87
2022/11/04 04:45:40;;;;;;;;;;;16.00;96.40;;;;;;5054299;28;19944;-88
2022/11/04 04:48:07;;;;;;;;;;;16.00;96.40;;;;;;5054224;28;19959;-88
2022/11/04 04:50:35;;;;;;;;;;;16.00;96.40;;;;;;5054602;28;19949;-87
2022/11/04 04:53:02;;;;;;;;;;;16.00;96.40;;;;;;5053956;28;19960;-87
2022/11/04 04:55:30;;;;;;;;;;;16.00;96.40;;;;;;5054182;28;19944;-87
2022/11/04 04:57:56;;;;;;;;;;;16.00;96.40;;;;;;5054178;28;19939;-88
2022/11/04 05:00:22;;;;;;;;;;;16.00;96.40;;;;;;5054263;28;19946;-87
2022/11/04 05:02:47;;;;;;;;;;;16.00;96.20;;;;;;5054305;28;20078;-88
2022/11/04 05:05:13;;;;;;;;;;;16.00;96.20;;;;;;5054166;28;19942;-87
2022/11/04 05:07:39;;;;;;;;;;;16.00;96.10;;;;;;5054189;28;20030;-87
2022/11/04 05:10:05;;;;;;;;;;;16.00;96.00;;;;;;5054200;28;19948;-88
2022/11/04 05:15:17;;;;;;;;;;;15.90;96.00;;;;;;5054578;28;19947;-87
2022/11/04 05:17:42;;;;;;;;;;;15.90;96.00;;;;;;5053937;28;19960;-87
2022/11/04 05:20:08;;;;;;;;;;;15.90;96.10;;;;;;5053893;28;19942;-87
2022/11/04 05:22:34;;;;;;;;;;;15.90;96.10;;;;;;5053755;28;19940;-87
2022/11/04 05:24:59;;;;;;;;;;;15.80;96.10;;;;;;5053837;28;19943;-88
2022/11/04 05:27:25;;;;;;;;;;;15.70;96.20;;;;;;5053823;28;19948;-87
2022/11/04 05:29:50;;;;;;;;;;;15.70;96.30;;;;;;5053795;28;19936;-88
2022/11/04 05:32:16;;;;;;;;;;;15.70;96.30;;;;;;5053707;28;19988;-88
2022/11/04 05:34:41;;;;;;;;;;;15.70;96.30;;;;;;5053708;28;19939;-87
2022/11/04 05:37:07;;;;;;;;;;;15.60;96.30;;;;;;5053266;28;20347;-88
2022/11/04 05:39:33;;;;;;;;;;;15.70;96.30;;;;;;5053808;28;19950;-87
2022/11/04 05:41:59;;;;;;;;;;;15.60;96.20;;;;;;5053445;28;20471;-87
2022/11/04 05:44:25;;;;;;;;;;;15.60;96.30;;;;;;5053451;28;20368;-87
2022/11/04 05:46:50;;;;;;;;;;;15.60;96.40;;;;;;5053643;28;19988;-88
2022/11/04 05:49:16;;;;;;;;;;;15.50;96.30;;;;;;5053456;28;20311;-87
2022/11/04 05:51:42;;;;;;;;;;;15.50;96.40;;;;;;5053323;28;19957;-88
2022/11/04 05:54:08;;;;;;;;;;;15.60;96.50;;;;;;5053526;28;20414;-87
2022/11/04 05:56:33;;;;;;;;;;;15.60;96.50;;;;;;5053451;28;20421;-87
2022/11/04 05:58:59;;;;;;;;;;;15.60;96.50;;;;;;5053238;28;19957;-88
2022/11/04 06:01:29;;;;;;;;;;;15.50;96.40;;;;;;5053262;28;19954;-87
2022/11/04 06:03:55;;;;;;;;;;;15.50;96.50;;;;;;5053194;28;20027;-87
2022/11/04 06:06:21;;;;;;;;;;;15.50;96.50;;;;;;5052091;28;19993;-87
2022/11/04 06:08:48;;;;;;;;;;;15.50;96.50;;;;;;5040947;28;19995;-87
2022/11/04 06:11:13;;;;;;;;;;;15.50;96.50;;;;;;5052317;28;19941;-87
2022/11/04 06:13:39;;;;;;;;;;;15.60;96.50;;;;;;5052099;28;19964;-87
2022/11/04 06:16:05;;;;;;;;;;;15.60;96.50;;;;;;5052941;28;19990;-87
2022/11/04 06:18:30;;;;;;;;;;;15.70;96.40;;;;;;5052374;28;20066;-87
2022/11/04 06:21:25;;;;;;;;;;;15.80;96.30;;;;;;5051863;28;19948;-87
2022/11/04 06:23:51;;;;;;;;;;;15.70;96.10;;;;;;5052630;28;20301;-87
2022/11/04 06:26:17;;;;;;;;;;;15.70;96.00;;;;;;5052741;28;19942;-87
2022/11/04 06:28:43;;;;;;;;;;;15.70;95.90;;;;;;5061226;22;19948;-87
2022/11/04 06:31:09;;;;;;;;;;;15.60;95.70;;;;;;5092801;28;19955;-87
2022/11/04 06:33:35;;;;;;;;;;;15.70;95.50;;;;;;5087529;28;19947;-87
2022/11/04 06:36:01;;;;;;;;;;;15.70;95.50;;;;;;5083377;28;20454;-87
2022/11/04 06:38:28;;;;;;;;;;;15.60;95.50;;;;;;5070524;28;20506;-87
2022/11/04 06:40:54;;;;;;;;;;;15.60;95.40;;;;;;5086229;28;19950;-87
2022/11/04 06:43:19;;;;;;;;;;;15.60;95.30;;;;;;5079238;28;20457;-87
2022/11/04 06:45:51;;;;;;;;;;;15.60;95.30;;;;;;5085434;28;20408;-88
2022/11/04 06:48:17;;;;;;;;;;;15.50;95.20;;;;;;5089855;28;19934;-87
2022/11/04 06:50:42;;;;;;;;;;;15.50;95.30;;;;;;5081524;28;20445;-88
2022/11/04 06:53:08;;;;;;;;;;;15.50;95.20;;;;;;5053336;28;19953;-87
2022/11/04 06:55:33;;;;;;;;;;;15.50;95.30;;;;;;5052491;28;19968;-87
2022/11/04 06:57:59;;;;;;;;;;;15.50;95.40;;;;;;5068559;28;19936;-88
2022/11/04 07:00:25;;;;;;;;;;;15.70;95.30;;;;;;5067265;28;19984;-87
2022/11/04 07:02:50;;;;;;;;;;;15.70;94.70;;;;;;5064333;28;19950;-88
2022/11/04 07:05:16;;;;;;;;;;;15.80;94.80;;;;;;5058338;28;19959;-88
2022/11/04 07:07:42;;;;;;;;;;;15.90;94.60;;;;;;5066852;28;19955;-87
2022/11/04 07:10:07;;;;;;;;;;;16.00;94.50;;;;;;5068930;28;19948;-88
2022/11/04 07:12:33;;;;;;;;;;;16.20;94.30;;;;;;5063314;28;19944;-88
2022/11/04 07:14:58;;;;;;;;;;;16.30;94.20;;;;;;5066621;28;19952;-88
2022/11/04 07:17:24;;;;;;;;;;;16.40;94.10;;;;;;5069556;28;20437;-88
2022/11/04 07:19:50;;;;;;;;;;;16.60;94.00;;;;;;5073377;28;19940;-88
2022/11/04 07:22:15;;;;;;;;;;;16.80;93.80;;;;;;5064827;28;20035;-88
2022/11/04 07:24:41;;;;;;;;;;;16.80;93.80;;;;;;5072210;28;19943;-88
2022/11/04 07:27:06;;;;;;;;;;;17.00;93.80;;;;;;5073614;28;19946;-87
2022/11/04 07:29:32;;;;;;;;;;;17.10;93.70;;;;;;5071748;28;19973;-88
2022/11/04 07:31:57;;;;;;;;;;;17.20;93.70;;;;;;5072046;28;19944;-87
2022/11/04 07:34:23;;;;;;;;;;;17.20;92.40;;;;;;5054343;28;19949;-87
2022/11/04 07:36:49;;;;;;;;;;;17.10;92.00;;;;;;5073634;28;19956;-88
2022/11/04 07:39:15;;;;;;;;;;;17.10;92.30;;;;;;5073169;28;20486;-88
2022/11/04 07:41:40;;;;;;;;;;;17.00;92.00;;;;;;5071416;28;19952;-88
2022/11/04 07:44:06;;;;;;;;;;;16.80;91.90;;;;;;5074610;28;19950;-87
2022/11/04 07:46:32;;;;;;;;;;;16.70;92.40;;;;;;5072544;28;20318;-88
2022/11/04 07:48:58;;;;;;;;;;;16.60;92.80;;;;;;5071970;28;19951;-87
2022/11/04 07:51:24;;;;;;;;;;;16.40;93.40;;;;;;5072281;28;20331;-87
2022/11/04 07:53:49;;;;;;;;;;;16.30;93.40;;;;;;5072947;28;20372;-87
2022/11/04 07:56:15;;;;;;;;;;;16.20;93.20;;;;;;5069782;28;19979;-87
2022/11/04 07:58:41;;;;;;;;;;;16.20;93.70;;;;;;5074817;28;19958;-87
2022/11/04 08:01:12;;;;;;;;;;;16.10;93.70;;;;;;5054898;28;20359;-87
2022/11/04 08:03:38;;;;;;;;;;;16.10;93.60;;;;;;5071976;28;20333;-87
2022/11/04 08:06:05;;;;;;;;;;;16.10;93.40;;;;;;5072937;28;21171;-87
2022/11/04 08:08:30;;;;;;;;;;;16.00;93.60;;;;;;5071560;28;19952;-87
2022/11/04 08:10:59;;;;;;;;;;;15.90;93.60;;;;;;5073590;28;19941;-87
2022/11/04 08:13:28;;;;;;;;;;;15.80;93.70;;;;;;5073127;28;19945;-87
2022/11/04 08:15:54;;;;;;;;;;;15.80;94.30;;;;;;5071213;28;20140;-88
2022/11/04 08:18:20;;;;;;;;;;;15.60;94.80;;;;;;5071964;28;19970;-88
2022/11/04 08:20:46;;;;;;;;;;;15.30;94.00;;;;;;5066038;28;19942;-87
2022/11/04 08:23:12;;;;;;;;;;;15.20;93.80;;;;;;5065967;28;19940;-89
2022/11/04 08:25:37;;;;;;;;;;;14.90;93.60;;;;;;5068926;28;20003;-88
2022/11/04 08:28:03;;;;;;;;;;;14.70;94.10;;;;;;5065456;28;20293;-88
2022/11/04 08:30:28;;;;;;;;;;;14.50;94.70;;;;;;5048107;28;19990;-88
2022/11/04 08:32:54;;;;;;;;;;;14.50;94.80;;;;;;5067468;28;19947;-88
2022/11/04 08:35:19;;;;;;;;;;;14.50;94.60;;;;;;5069460;28;20320;-88
2022/11/04 08:37:45;;;;;;;;;;;14.50;94.50;;;;;;5065758;28;19993;-88
2022/11/04 08:40:10;;;;;;;;;;;14.50;94.20;;;;;;5069762;28;20007;-88
2022/11/04 08:42:36;;;;;;;;;;;14.40;94.10;;;;;;5051108;28;20028;-88
2022/11/04 08:45:02;;;;;;;;;;;14.40;93.30;;;;;;5070695;28;19940;-88
2022/11/04 08:47:27;;;;;;;;;;;14.40;92.80;;;;;;5069583;28;19951;-88
2022/11/04 08:49:53;;;;;;;;;;;14.40;92.40;;;;;;5070777;28;20368;-87
2022/11/04 08:52:18;;;;;;;;;;;14.40;92.60;;;;;;5069552;28;19958;-88
2022/11/04 08:54:44;;;;;;;;;;;14.40;92.10;;;;;;5069351;28;19944;-88
2022/11/04 08:57:09;;;;;;;;;;;14.40;92.00;;;;;;5069057;28;20295;-88
2022/11/04 08:59:35;;;;;;;;;;;14.50;92.20;;;;;;5071898;28;19948;-88
2022/11/04 09:02:00;;;;;;;;;;;14.80;92.90;;;;;;5068052;28;20041;-88
2022/11/04 09:04:26;;;;;;;;;;;14.90;92.80;;;;;;5065806;28;19953;-87
2022/11/04 09:06:52;;;;;;;;;;;14.90;90.90;;;;;;5070993;28;19974;-87
2022/11/04 09:09:18;;;;;;;;;;;15.00;90.20;;;;;;5049818;28;19950;-87
2022/11/04 09:11:44;;;;;;;;;;;15.20;90.30;;;;;;5070569;28;19954;-88
2022/11/04 09:14:10;;;;;;;;;;;15.30;91.10;;;;;;5071869;28;20011;-88
2022/11/04 09:16:36;;;;;;;;;;;15.40;88.60;;;;;;5071488;28;20402;-87
2022/11/04 09:19:02;;;;;;;;;;;15.50;86.30;;;;;;5064985;28;19962;-88
2022/11/04 09:21:27;;;;;;;;;;;15.60;83.70;;;;;;5069645;28;19941;-88
2022/11/04 09:23:53;;;;;;;;;;;15.70;83.60;;;;;;5068633;28;20449;-88
2022/11/04 09:26:19;;;;;;;;;;;15.80;83.20;;;;;;5059812;28;20008;-88
2022/11/04 09:28:45;;;;;;;;;;;15.80;80.50;;;;;;5071106;28;20323;-88
2022/11/04 09:31:12;;;;;;;;;;;15.90;79.50;;;;;;5071425;28;19998;-88
2022/11/04 09:33:37;;;;;;;;;;;15.90;76.80;;;;;;5069891;28;19945;-88
2022/11/04 09:36:03;;;;;;;;;;;16.00;79.00;;;;;;5051250;28;19965;-88
2022/11/04 09:38:28;;;;;;;;;;;16.00;78.00;;;;;;5050669;28;19965;-88
2022/11/04 09:40:54;;;;;;;;;;;16.00;75.40;;;;;;5069686;28;20338;-88
2022/11/04 09:43:23;;;;;;;;;;;15.80;72.00;;;;;;5071777;28;20051;-87
2022/11/04 09:45:48;;;;;;;;;;;15.80;75.50;;;;;;5071480;28;19943;-88
2022/11/04 09:48:25;;;;;;;;;;;15.60;76.20;;;;;;5071804;28;20332;-88
2022/11/04 09:50:52;;;;;;;;;;;15.40;78.10;;;;;;5071112;28;19946;-88
2022/11/04 09:53:21;;;;;;;;;;;15.20;80.40;;;;;;5072047;28;19941;-88
2022/11/04 09:55:50;;;;;;;;;;;15.10;79.80;;;;;;5070991;28;20496;-88
2022/11/04 09:58:15;;;;;;;;;;;15.00;80.30;;;;;;5070753;28;19942;-89
2022/11/04 10:00:44;;;;;;;;;;;14.90;80.90;;;;;;5070068;28;20084;-89
2022/11/04 10:03:28;;;;;;;;;;;14.90;81.60;;;;;;5069718;28;19946;-88
2022/11/04 10:05:59;;;;;;;;;;;14.90;81.30;;;;;;5068145;28;19950;-88
2022/11/04 10:08:28;;;;;;;;;;;14.90;82.20;;;;;;5065144;28;19953;-88
2022/11/04 10:10:58;;;;;;;;;;;14.80;80.50;;;;;;5069078;28;20082;-88
2022/11/04 10:13:36;;;;;;;;;;;14.80;82.20;;;;;;5069683;28;19973;-88
2022/11/04 10:16:08;;;;;;;;;;;14.90;80.30;;;;;;5061600;28;19949;-88
2022/11/04 10:18:48;;;;;;;;;;;14.90;81.10;;;;;;5069091;28;19995;-88
2022/11/04 10:21:24;;;;;;;;;;;14.90;79.60;;;;;;5069316;28;19951;-88
2022/11/04 10:23:58;;;;;;;;;;;14.80;80.60;;;;;;5071530;28;19972;-88
2022/11/04 10:26:28;;;;;;;;;;;14.80;79.60;;;;;;5069343;28;20335;-88
2022/11/04 10:28:57;;;;;;;;;;;14.90;80.10;;;;;;5065651;28;19984;-88
2022/11/04 10:31:23;;;;;;;;;;;14.80;79.20;;;;;;5046048;28;19954;-87
2022/11/04 10:33:57;;;;;;;;;;;14.80;77.80;;;;;;5068521;28;19946;-89
2022/11/04 10:36:23;;;;;;;;;;;14.80;78.40;;;;;;5055735;28;20413;-88
2022/11/04 10:38:50;;;;;;;;;;;15.00;78.60;;;;;;5056041;28;20030;-87
2022/11/04 10:41:15;;;;;;;;;;;15.00;76.50;;;;;;5066277;28;20037;-88
2022/11/04 10:43:41;;;;;;;;;;;15.00;78.60;;;;;;5052654;28;20100;-88
2022/11/04 10:46:26;;;;;;;;;;;15.10;76.30;;;;;;5071669;28;19942;-88
2022/11/04 10:49:10;;;;;;;;;;;15.10;76.70;;;;;;5066895;28;19944;-87
2022/11/04 10:51:35;;;;;;;;;;;15.30;77.60;;;;;;5063766;28;20066;-87
2022/11/04 10:54:02;;;;;;;;;;;15.30;75.50;;;;;;5070660;28;20084;-88
2022/11/04 10:56:32;;;;;;;;;;;15.30;75.50;;;;;;5072751;28;19946;-88
2022/11/04 10:59:00;;;;;;;;;;;15.50;76.10;;;;;;5072860;28;19973;-88
2022/11/04 11:01:28;;;;;;;;;;;15.60;74.70;;;;;;5073305;28;20045;-88
2022/11/04 11:03:54;;;;;;;;;;;15.40;72.60;;;;;;5073632;28;19939;-88
2022/11/04 11:06:26;;;;;;;;;;;15.40;73.80;;;;;;5063140;28;19948;-87
2022/11/04 11:08:53;;;;;;;;;;;15.50;74.60;;;;;;5071204;28;20109;-87
2022/11/04 11:11:34;;;;;;;;;;;15.60;74.70;;;;;;5068607;28;19957;-87
2022/11/04 11:13:59;;;;;;;;;;;15.40;74.40;;;;;;5075694;28;20282;-87
2022/11/04 11:16:26;;;;;;;;;;;15.50;75.10;;;;;;5075387;28;20585;-87
2022/11/04 11:19:12;;;;;;;;;;;15.70;73.30;;;;;;5075878;28;19960;-87
2022/11/04 11:21:48;;;;;;;;;;;15.70;73.70;;;;;;5075642;28;20426;-87
2022/11/04 11:24:17;;;;;;;;;;;15.80;74.10;;;;;;5075828;28;20412;-87
2022/11/04 11:26:49;;;;;;;;;;;15.70;73.80;;;;;;5075821;28;20044;-87
2022/11/04 11:29:20;;;;;;;;;;;15.80;75.10;;;;;;5075615;28;19984;-87
2022/11/04 11:31:46;;;;;;;;;;;15.90;73.90;;;;;;5075648;28;19939;-87
2022/11/04 11:34:19;;;;;;;;;;;16.30;75.10;;;;;;5075697;28;19944;-87
2022/11/04 11:36:46;;;;;;;;;;;16.20;74.60;;;;;;5075611;28;19942;-87
2022/11/04 11:39:17;;;;;;;;;;;16.20;73.30;;;;;;5075731;28;20012;-88
2022/11/04 11:42:03;;;;;;;;;;;16.20;72.80;;;;;;5075532;28;19938;-87
2022/11/04 11:44:31;;;;;;;;;;;16.60;72.10;;;;;;5075456;28;19948;-88
2022/11/04 11:47:00;;;;;;;;;;;16.90;70.00;;;;;;5057398;28;19941;-87
2022/11/04 11:49:29;;;;;;;;;;;17.10;71.60;;;;;;5057323;28;20098;-88
2022/11/04 11:51:55;;;;;;;;;;;17.30;70.20;;;;;;5075088;28;20041;-87
2022/11/04 11:54:24;;;;;;;;;;;17.40;68.50;;;;;;5075316;28;19947;-88
2022/11/04 11:56:53;;;;;;;;;;;17.40;70.10;;;;;;5075254;28;19933;-87
2022/11/04 11:59:33;;;;;;;;;;;17.60;69.10;;;;;;5075074;28;19966;-88
2022/11/04 12:02:01;;;;;;;;;;;17.70;68.50;;;;;;5075431;28;19944;-88
2022/11/04 12:04:27;;;;;;;;;;;17.60;67.40;;;;;;5074067;28;19984;-87
2022/11/04 12:07:11;;;;;;;;;;;17.70;67.20;;;;;;5075026;28;20391;-87
2022/11/04 12:09:49;;;;;;;;;;;17.70;67.80;;;;;;5075253;28;19964;-87
2022/11/04 12:12:15;;;;;;;;;;;18.00;67.10;;;;;;5074930;28;19946;-87
2022/11/04 12:14:54;;;;;;;;;;;18.30;65.20;;;;;;5074861;28;19942;-87
2022/11/04 12:17:25;;;;;;;;;;;18.00;64.20;;;;;;5074742;28;19941;-88
2022/11/04 12:19:57;;;;;;;;;;;18.30;64.60;;;;;;5075009;28;19976;-87
2022/11/04 12:22:38;;;;;;;;;;;18.30;64.90;;;;;;5056268;28;19953;-88
2022/11/04 12:25:04;;;;;;;;;;;18.70;63.90;;;;;;5072318;28;19951;-88
2022/11/04 12:27:46;;;;;;;;;;;18.70;63.30;;;;;;5074539;28;19944;-87
2022/11/04 12:30:13;;;;;;;;;;;18.80;61.60;;;;;;5070744;28;19974;-88
2022/11/04 12:33:05;;;;;;;;;;;18.80;61.40;;;;;;5051794;28;20039;-88
2022/11/04 12:35:43;;;;;;;;;;;19.20;61.00;;;;;;5071545;28;20615;-88
2022/11/04 12:38:17;;;;;;;;;;;19.50;57.40;;;;;;5069001;28;19961;-87
2022/11/04 12:41:12;;;;;;;;;;;19.50;59.70;;;;;;5064702;28;19952;-87
2022/11/04 12:44:13;;;;;;;;;;;19.60;58.50;;;;;;5047898;28;19947;-88
2022/11/04 12:46:39;;;;;;;;;;;19.80;56.60;;;;;;4951379;28;19998;-88
2022/11/04 12:49:28;;;;;;;;;;;19.80;56.50;;;;;;5043962;28;20371;-88
2022/11/04 12:52:14;;;;;;;;;;;19.50;57.10;;;;;;5024480;28;19969;-88
2022/11/04 12:54:46;;;;;;;;;;;19.80;55.20;;;;;;5070115;28;20012;-88
2022/11/04 12:57:23;;;;;;;;;;;19.90;54.60;;;;;;5067705;28;19988;-88
2022/11/04 13:00:05;;;;;;;;;;;19.90;56.20;;;;;;5069088;28;20356;-88
2022/11/04 13:02:39;;;;;;;;;;;20.10;56.00;;;;;;5059683;28;19951;-88
2022/11/04 13:05:20;;;;;;;;;;;20.40;55.00;;;;;;5068929;28;19935;-87
2022/11/04 13:07:49;;;;;;;;;;;20.30;52.70;;;;;;5063247;28;19946;-88
2022/11/04 13:10:21;;;;;;;;;;;20.40;51.50;;;;;;5067847;28;20479;-87
2022/11/04 13:12:48;;;;;;;;;;;20.50;52.90;;;;;;5066354;28;21235;-88
2022/11/04 13:15:24;;;;;;;;;;;20.80;51.60;;;;;;5065014;28;19999;-88
2022/11/04 13:17:53;;;;;;;;;;;21.10;52.00;;;;;;5071089;28;19963;-87
2022/11/04 13:20:25;;;;;;;;;;;21.30;50.50;;;;;;5069610;28;19948;-87
2022/11/04 13:22:52;;;;;;;;;;;21.40;50.00;;;;;;5073343;28;20002;-87
2022/11/04 13:25:17;;;;;;;;;;;21.60;49.30;;;;;;5068852;28;19940;-88
2022/11/04 13:27:44;;;;;;;;;;;21.50;49.80;;;;;;5073406;28;20035;-87
2022/11/04 13:30:20;;;;;;;;;;;21.00;50.70;;;;;;5069560;28;20241;-87
2022/11/04 13:32:49;;;;;;;;;;;20.80;51.90;;;;;;5070564;28;19992;-88
2022/11/04 13:35:25;;;;;;;;;;;21.10;52.90;;;;;;5073077;28;19942;-87
2022/11/04 13:38:01;;;;;;;;;;;21.30;52.60;;;;;;5069179;28;19965;-88
2022/11/04 13:40:29;;;;;;;;;;;21.60;50.90;;;;;;5071560;28;19941;-87
2022/11/04 13:46:00;;;;;;;;;;;21.30;51.00;;;;;;5070122;28;19954;-88
2022/11/04 13:48:28;;;;;;;;;;;22.00;50.30;;;;;;5065641;28;19946;-88
2022/11/04 13:50:55;;;;;;;;;;;22.60;48.80;;;;;;5070952;28;20040;-87
2022/11/04 13:53:38;;;;;;;;;;;22.30;49.00;;;;;;5069059;28;19951;-87
2022/11/04 13:56:04;;;;;;;;;;;21.40;50.00;;;;;;5065579;28;19945;-87
2022/11/04 13:58:29;;;;;;;;;;;21.00;51.80;;;;;;5067872;28;19962;-87
2022/11/04 14:01:24;;;;;;;;;;;21.20;50.80;;;;;;5066683;28;19944;-88
2022/11/04 14:03:51;;;;;;;;;;;21.30;52.20;;;;;;5043254;28;20035;-87
2022/11/04 14:06:37;;;;;;;;;;;21.10;51.40;;;;;;5069195;28;19940;-88
2022/11/04 14:09:21;;;;;;;;;;;20.90;50.40;;;;;;5071706;28;19971;-87
2022/11/04 14:12:05;;;;;;;;;;;20.80;50.60;;;;;;5067137;28;19954;-87
2022/11/04 14:14:31;;;;;;;;;;;20.80;50.30;;;;;;5064857;28;19953;-88
2022/11/04 14:16:56;;;;;;;;;;;21.10;50.50;;;;;;5049433;28;19962;-88
2022/11/04 14:19:41;;;;;;;;;;;21.30;50.60;;;;;;5069106;28;20010;-88
2022/11/04 14:22:13;;;;;;;;;;;21.60;49.20;;;;;;5067144;28;19945;-87
2022/11/04 14:24:38;;;;;;;;;;;21.30;49.30;;;;;;5070194;28;20001;-88
2022/11/04 14:27:05;;;;;;;;;;;21.40;50.00;;;;;;5070161;28;20312;-88
2022/11/04 14:29:30;;;;;;;;;;;21.60;49.80;;;;;;5073016;22;19980;-87
2022/11/04 14:31:57;;;;;;;;;;;21.50;49.20;;;;;;5051200;28;19953;-88
2022/11/04 14:34:28;;;;;;;;;;;21.40;49.70;;;;;;5052794;28;19974;-88
2022/11/04 14:36:58;;;;;;;;;;;21.40;48.60;;;;;;5050947;28;19944;-88
2022/11/04 14:39:27;;;;;;;;;;;21.30;49.10;;;;;;5052059;28;20152;-88
2022/11/04 14:41:52;;;;;;;;;;;21.20;50.00;;;;;;5054303;28;19947;-87
2022/11/04 14:44:20;;;;;;;;;;;21.00;50.40;;;;;;5053736;28;20055;-88
2022/11/04 14:46:48;;;;;;;;;;;21.00;50.90;;;;;;5052458;28;20464;-88
2022/11/04 14:49:25;;;;;;;;;;;20.90;51.10;;;;;;5050225;28;19946;-88
2022/11/04 14:51:53;;;;;;;;;;;20.90;51.00;;;;;;5047572;28;20020;-88
2022/11/04 14:54:20;;;;;;;;;;;21.00;51.50;;;;;;5052416;28;19950;-88
2022/11/04 14:56:45;;;;;;;;;;;21.00;51.00;;;;;;5047997;28;20021;-88
2022/11/04 14:59:37;;;;;;;;;;;21.10;51.10;;;;;;5052889;28;20419;-88
2022/11/04 15:02:03;;;;;;;;;;;21.20;50.10;;;;;;5047643;28;19953;-88
2022/11/04 15:04:30;;;;;;;;;;;20.90;51.90;;;;;;5049165;28;19955;-87
2022/11/04 15:06:57;;;;;;;;;;;20.60;52.10;;;;;;5050661;28;20052;-88
2022/11/04 15:09:25;;;;;;;;;;;20.50;52.80;;;;;;5048500;28;19949;-87
2022/11/04 15:14:41;;;;;;;;;;;20.30;52.80;;;;;;5054023;28;19966;-88
2022/11/04 15:17:12;;;;;;;;;;;20.30;51.90;;;;;;5059507;28;20598;-87
2022/11/04 15:19:37;;;;;;;;;;;20.30;52.70;;;;;;5053892;28;19965;-88
2022/11/04 15:22:04;;;;;;;;;;;20.30;51.80;;;;;;5051984;28;20426;-88
2022/11/04 15:24:30;;;;;;;;;;;20.20;54.10;;;;;;5053003;28;20052;-88